Koei Maru — JD3326 — position and weather

sailwx.info

Track history (hours):
 
Tides and Currents Weather Stations Pressure Air Temp Water Temp Dewpoint Dewpoint Depression Visibility Wind Speed Wind Dir Waves Ship Positions

Koei Maru

Last reported at 2018-May-15 14:09 UTC. Time now 2018-Jun-22 05:35 UTC.
Position N 34°43' E 134°51'.
Warning: this ship's position is 37 days out of date.

Length 74 m.

Type: Cargo ship. MMSI: 431003269.

Date/timePositionNaut miles runAvg speedWind from/ knotsBaromVisibWave heightAir tempDewpointWater temp
2018-May-15 14:09N 34°43' E 134°51'0 0.0
2018-May-15 13:57N 34°43' E 134°51'0 0.0
2018-May-15 12:45N 34°43' E 134°51'0 0.0
2018-May-15 12:27N 34°43' E 134°51'0 0.0
2018-May-15 11:45N 34°43' E 134°51'0 0.0
2018-May-15 11:15N 34°43' E 134°51'0 0.6
2018-May-15 10:54N 34°43' E 134°51'3 8.4
2018-May-15 10:30N 34°41' E 134°48'610.9
2018-May-15 09:57N 34°42' E 134°41'511.4
2018-May-15 09:30N 34°42' E 134°34'4 0.2
2018-May-14 16:31N 34°41' E 134°30'112.1
2018-May-14 16:26N 34°41' E 134°31'712.3
2018-May-14 15:54N 34°42' E 134°39'512.2
2018-May-14 15:30N 34°42' E 134°45'5 9.1
2018-May-14 15:00N 34°43' E 134°50'0 0.4
2018-May-14 13:48N 34°43' E 134°51'0 0.0
2018-May-14 13:24N 34°43' E 134°51'0 0.0
2018-May-13 19:36N 34°43' E 134°51'0 1.9
2018-May-13 19:29N 34°43' E 134°51'4 8.4
2018-May-13 19:00N 34°41' E 134°46'  
2018-May-10 21:35N 34°42' E 134°38'113.1
2018-May-10 21:30N 34°42' E 134°40'713.1
2018-May-10 20:56N 34°41' E 134°49'3 1.4
2018-May-10 19:00N 34°43' E 134°51'0 0.0
2018-May-10 16:24N 34°43' E 134°51'0 0.0
2018-May-10 14:54N 34°43' E 134°51'1 2.6
2018-May-10 14:28N 34°42' E 134°50'510.0
2018-May-10 14:00N 34°41' E 134°45'7 0.3
2018-May-09 16:15N 34°42' E 134°37'413.2
2018-May-09 15:55N 34°42' E 134°42'512.7
2018-May-09 15:30N 34°41' E 134°48'3 0.3
2018-May-09 07:00N 34°43' E 134°51'4 7.8
2018-May-09 06:29N 34°41' E 134°46'2 0.1
2018-May-08 03:31N 34°42' E 134°44'113.6
2018-May-08 03:28N 34°42' E 134°45'5 0.7
2018-May-07 20:36N 34°43' E 134°51'0 0.0
2018-May-07 20:18N 34°43' E 134°51'0 0.0
2018-May-07 20:00N 34°43' E 134°51'0 0.0
2018-May-07 19:30N 34°43' E 134°51'0 0.0
2018-May-07 18:48N 34°43' E 134°51'0 0.3
2018-May-07 17:39N 34°43' E 134°51'1 6.2
2018-May-07 17:30N 34°42' E 134°50'5 9.5
2018-May-07 17:00N 34°42' E 134°44'4 0.2
2018-May-06 16:06N 34°42' E 134°39'112.8
2018-May-06 15:59N 34°42' E 134°41'713.1
2018-May-06 15:29N 34°41' E 134°49'2 0.2
2018-May-06 06:53N 34°42' E 134°50'4 9.7
2018-May-06 06:29N 34°41' E 134°46'  
Track history (hours):
 
Tides and Currents Weather Stations Pressure Air Temp Water Temp Dewpoint Dewpoint Depression Visibility Wind Speed Wind Dir Waves Ship Positions

Koei Maru

Last reported at 2018-May-15 14:09 UTC. Time now 2018-Jun-22 05:35 UTC.
Position N 34°43' E 134°51'.
Warning: this ship's position is 37 days out of date.

Length 74 m.

Type: Cargo ship. MMSI: 431003269.

Date/timePositionNaut miles runAvg speedWind from/ knotsBaromVisibWave heightAir tempDewpointWater temp
2018-May-15 14:09N 34°43' E 134°51'0 0.0
2018-May-15 13:57N 34°43' E 134°51'0 0.0
2018-May-15 12:45N 34°43' E 134°51'0 0.0
2018-May-15 12:27N 34°43' E 134°51'0 0.0
2018-May-15 11:45N 34°43' E 134°51'0 0.0
2018-May-15 11:15N 34°43' E 134°51'0 0.6
2018-May-15 10:54N 34°43' E 134°51'3 8.4
2018-May-15 10:30N 34°41' E 134°48'610.9
2018-May-15 09:57N 34°42' E 134°41'511.4
2018-May-15 09:30N 34°42' E 134°34'4 0.2
2018-May-14 16:31N 34°41' E 134°30'112.1
2018-May-14 16:26N 34°41' E 134°31'712.3
2018-May-14 15:54N 34°42' E 134°39'512.2
2018-May-14 15:30N 34°42' E 134°45'5 9.1
2018-May-14 15:00N 34°43' E 134°50'0 0.4
2018-May-14 13:48N 34°43' E 134°51'0 0.0
2018-May-14 13:24N 34°43' E 134°51'0 0.0
2018-May-13 19:36N 34°43' E 134°51'0 1.9
2018-May-13 19:29N 34°43' E 134°51'4 8.4
2018-May-13 19:00N 34°41' E 134°46'  
2018-May-10 21:35N 34°42' E 134°38'113.1
2018-May-10 21:30N 34°42' E 134°40'713.1
2018-May-10 20:56N 34°41' E 134°49'3 1.4
2018-May-10 19:00N 34°43' E 134°51'0 0.0
2018-May-10 16:24N 34°43' E 134°51'0 0.0
2018-May-10 14:54N 34°43' E 134°51'1 2.6
2018-May-10 14:28N 34°42' E 134°50'510.0
2018-May-10 14:00N 34°41' E 134°45'7 0.3
2018-May-09 16:15N 34°42' E 134°37'413.2
2018-May-09 15:55N 34°42' E 134°42'512.7
2018-May-09 15:30N 34°41' E 134°48'3 0.3
2018-May-09 07:00N 34°43' E 134°51'4 7.8
2018-May-09 06:29N 34°41' E 134°46'2 0.1
2018-May-08 03:31N 34°42' E 134°44'113.6
2018-May-08 03:28N 34°42' E 134°45'5 0.7
2018-May-07 20:36N 34°43' E 134°51'0 0.0
2018-May-07 20:18N 34°43' E 134°51'0 0.0
2018-May-07 20:00N 34°43' E 134°51'0 0.0
2018-May-07 19:30N 34°43' E 134°51'0 0.0
2018-May-07 18:48N 34°43' E 134°51'0 0.3
2018-May-07 17:39N 34°43' E 134°51'1 6.2
2018-May-07 17:30N 34°42' E 134°50'5 9.5
2018-May-07 17:00N 34°42' E 134°44'4 0.2
2018-May-06 16:06N 34°42' E 134°39'112.8
2018-May-06 15:59N 34°42' E 134°41'713.1
2018-May-06 15:29N 34°41' E 134°49'2 0.2
2018-May-06 06:53N 34°42' E 134°50'4 9.7
2018-May-06 06:29N 34°41' E 134°46'  

Dump ship's entire track history